createdAt,value
2023-06-12T00:00:41.610Z,95770
2023-06-12T00:01:41.634Z,95770
2023-06-12T00:02:41.703Z,95772
2023-06-12T00:03:41.835Z,95772
2023-06-12T00:04:41.636Z,95769
2023-06-12T00:05:41.612Z,95772
2023-06-12T00:06:44.913Z,95772
2023-06-12T00:07:41.644Z,95769
2023-06-12T00:08:41.650Z,95769
2023-06-12T00:09:41.653Z,95769
2023-06-12T00:10:41.639Z,95769
2023-06-12T00:11:41.697Z,95766
2023-06-12T00:12:41.666Z,95768
2023-06-12T00:13:41.641Z,95767
2023-06-12T00:15:41.649Z,95766
2023-06-12T00:16:41.669Z,95767
2023-06-12T00:17:41.689Z,95770
2023-06-12T00:18:41.682Z,95770
2023-06-12T00:19:41.623Z,95772
2023-06-12T00:21:41.689Z,95775
2023-06-12T00:22:41.673Z,95774
2023-06-12T00:23:41.745Z,95775
2023-06-12T00:24:41.643Z,95775
2023-06-12T00:25:41.684Z,95772
2023-06-12T00:26:41.674Z,95771
2023-06-12T00:27:41.877Z,95771
2023-06-12T00:28:41.721Z,95772
2023-06-12T00:32:41.698Z,95773
2023-06-12T00:33:41.704Z,95772
2023-06-12T00:35:41.693Z,95772
2023-06-12T00:36:41.698Z,95769
2023-06-12T00:37:41.689Z,95769
2023-06-12T00:38:41.742Z,95770
2023-06-12T00:39:41.731Z,95770
2023-06-12T00:40:41.736Z,95770
2023-06-12T00:41:41.726Z,95771
2023-06-12T00:42:41.710Z,95771
2023-06-12T00:43:41.716Z,95768
2023-06-12T00:44:41.733Z,95765
2023-06-12T00:45:41.741Z,95763
2023-06-12T00:46:41.717Z,95763
2023-06-12T00:48:41.728Z,95764
2023-06-12T00:49:41.795Z,95767
2023-06-12T00:50:41.708Z,95767
2023-06-12T00:52:41.748Z,95771
2023-06-12T00:53:41.708Z,95771
2023-06-12T00:57:41.733Z,95766
2023-06-12T00:58:41.718Z,95765
2023-06-12T00:59:41.783Z,95763
2023-06-12T01:02:41.914Z,95759
2023-06-12T01:06:41.770Z,95759
2023-06-12T01:07:41.805Z,95760
2023-06-12T01:08:41.819Z,95762
2023-06-12T01:09:41.795Z,95760
2023-06-12T01:10:41.825Z,95759
2023-06-12T01:11:41.787Z,95759
2023-06-12T01:12:41.811Z,95760
2023-06-12T01:13:41.876Z,95761
2023-06-12T01:14:41.822Z,95759
2023-06-12T01:15:41.822Z,95759
2023-06-12T01:16:41.878Z,95758
2023-06-12T01:17:41.993Z,95756
2023-06-12T01:18:41.829Z,95758
2023-06-12T01:19:41.806Z,95756
2023-06-12T01:22:41.853Z,95760
2023-06-12T01:23:41.887Z,95761
2023-06-12T01:24:41.820Z,95761
2023-06-12T01:25:41.864Z,95765
2023-06-12T01:26:41.934Z,95761
2023-06-12T01:27:41.807Z,95761
2023-06-12T01:28:41.839Z,95757
2023-06-12T01:30:41.858Z,95757
2023-06-12T01:31:41.903Z,95760
2023-06-12T01:32:41.910Z,95760
2023-06-12T01:33:41.858Z,95761
2023-06-12T01:34:41.876Z,95761
2023-06-12T01:35:41.847Z,95761
2023-06-12T01:36:41.884Z,95759
2023-06-12T01:37:41.856Z,95759
2023-06-12T01:38:41.882Z,95761
2023-06-12T01:39:41.888Z,95758
2023-06-12T01:40:41.833Z,95758
2023-06-12T01:41:41.897Z,95759
2023-06-12T01:42:41.897Z,95762
2023-06-12T01:44:41.875Z,95761
2023-06-12T01:45:41.872Z,95761
2023-06-12T01:46:41.946Z,95763
2023-06-12T01:47:41.965Z,95760
2023-06-12T01:49:41.889Z,95760
2023-06-12T01:50:41.871Z,95760
2023-06-12T01:51:41.916Z,95763
2023-06-12T01:52:41.951Z,95760
2023-06-12T01:53:41.892Z,95760
2023-06-12T01:54:41.943Z,95760
2023-06-12T01:55:41.896Z,95760
2023-06-12T01:56:41.926Z,95761
2023-06-12T01:57:41.944Z,95764
2023-06-12T02:00:41.912Z,95770
2023-06-12T02:01:41.972Z,95762
2023-06-12T02:02:41.999Z,95762
2023-06-12T02:03:41.966Z,95766
2023-06-12T02:04:42.000Z,95766
2023-06-12T02:05:41.932Z,95766
2023-06-12T02:06:41.905Z,95764
2023-06-12T02:09:41.969Z,95768
2023-06-12T02:10:41.967Z,95769
2023-06-12T02:11:41.922Z,95767
2023-06-12T02:12:41.976Z,95769
2023-06-12T02:13:41.979Z,95773
2023-06-12T02:16:42.056Z,95770
2023-06-12T02:19:41.920Z,95773
2023-06-12T02:20:42.007Z,95775
2023-06-12T02:22:42.036Z,95777
2023-06-12T02:23:42.054Z,95777
2023-06-12T02:24:41.934Z,95776
2023-06-12T02:25:42.027Z,95778
2023-06-12T02:26:42.018Z,95779
2023-06-12T02:27:41.997Z,95779
2023-06-12T02:28:42.020Z,95778
2023-06-12T02:29:41.996Z,95778
2023-06-12T02:31:42.046Z,95780
2023-06-12T02:32:42.012Z,95780
2023-06-12T02:34:42.051Z,95777
2023-06-12T02:35:42.030Z,95778
2023-06-12T02:36:42.043Z,95777
2023-06-12T02:37:42.032Z,95776
2023-06-12T02:38:42.054Z,95776
2023-06-12T02:40:42.071Z,95776
2023-06-12T02:41:42.050Z,95777
2023-06-12T02:42:42.017Z,95777
2023-06-12T02:43:42.067Z,95777
2023-06-12T02:44:42.062Z,95776
2023-06-12T02:45:42.045Z,95776
2023-06-12T02:46:42.065Z,95778
2023-06-12T02:47:42.046Z,95781
2023-06-12T02:48:42.077Z,95781
2023-06-12T02:49:42.060Z,95781
2023-06-12T02:50:42.025Z,95779
2023-06-12T02:51:42.074Z,95778
2023-06-12T02:52:42.077Z,95776
2023-06-12T02:54:42.047Z,95779
2023-06-12T02:55:42.026Z,95779
2023-06-12T02:56:42.052Z,95779
2023-06-12T02:57:42.063Z,95776
2023-06-12T02:59:42.104Z,95775
2023-06-12T03:00:42.106Z,95769
2023-06-12T03:01:42.178Z,95769
2023-06-12T03:02:42.111Z,95773
2023-06-12T03:03:42.132Z,95774
2023-06-12T03:04:42.074Z,95777
2023-06-12T03:05:42.125Z,95775
2023-06-12T03:06:42.038Z,95776
2023-06-12T03:07:42.120Z,95777
2023-06-12T03:08:44.223Z,95777
2023-06-12T03:09:42.126Z,95777
2023-06-12T03:10:42.111Z,95773
2023-06-12T03:14:42.149Z,95781
2023-06-12T03:16:42.091Z,95780
2023-06-12T03:17:42.169Z,95779
2023-06-12T03:18:42.145Z,95778
2023-06-12T03:19:42.104Z,95778
2023-06-12T03:20:42.128Z,95777
2023-06-12T03:21:42.126Z,95777
2023-06-12T03:22:42.124Z,95779
2023-06-12T03:24:42.094Z,95777
2023-06-12T03:25:42.137Z,95777
2023-06-12T03:26:42.128Z,95780
2023-06-12T03:27:42.173Z,95780
2023-06-12T03:29:42.116Z,95783
2023-06-12T03:30:42.156Z,95788
2023-06-12T03:31:42.308Z,95788
2023-06-12T03:32:42.301Z,95792
2023-06-12T03:33:42.152Z,95793
2023-06-12T03:34:42.173Z,95793
2023-06-12T03:37:42.144Z,95794
2023-06-12T03:38:42.189Z,95792
2023-06-12T03:39:42.177Z,95794
2023-06-12T03:40:42.195Z,95791
2023-06-12T03:41:42.179Z,95791
2023-06-12T03:42:42.133Z,95791
2023-06-12T03:43:42.201Z,95791
2023-06-12T03:44:42.189Z,95790
2023-06-12T03:45:42.177Z,95790
2023-06-12T03:46:42.308Z,95791
2023-06-12T03:47:42.230Z,95791
2023-06-12T03:48:42.214Z,95794
2023-06-12T03:50:42.179Z,95800
2023-06-12T03:51:42.199Z,95799
2023-06-12T03:52:42.192Z,95803
2023-06-12T03:53:42.233Z,95803
2023-06-12T03:54:42.201Z,95803
2023-06-12T03:55:42.174Z,95806
2023-06-12T03:56:42.231Z,95805
2023-06-12T03:57:42.208Z,95806
2023-06-12T03:58:42.182Z,95806
2023-06-12T03:59:42.222Z,95808
2023-06-12T04:00:42.211Z,95813
2023-06-12T04:01:42.256Z,95810
2023-06-12T04:02:42.382Z,95810
2023-06-12T04:03:42.377Z,95812
2023-06-12T04:04:42.265Z,95814
2023-06-12T04:05:43.538Z,95816
2023-06-12T04:06:43.805Z,95816
2023-06-12T04:07:42.243Z,95816
2023-06-12T04:08:42.256Z,95813
2023-06-12T04:09:42.244Z,95815
2023-06-12T04:10:42.221Z,95815
2023-06-12T04:11:42.231Z,95813
2023-06-12T04:13:42.260Z,95817
2023-06-12T04:14:42.267Z,95817
2023-06-12T04:15:42.289Z,95821
2023-06-12T04:16:42.243Z,95820
2023-06-12T04:17:42.327Z,95822
2023-06-12T04:18:42.266Z,95824
2023-06-12T04:19:42.257Z,95824
2023-06-12T04:20:42.309Z,95825
2023-06-12T04:21:42.306Z,95823
2023-06-12T04:22:42.345Z,95828
2023-06-12T04:23:42.382Z,95828
2023-06-12T04:24:42.288Z,95829
2023-06-12T04:25:42.288Z,95830
2023-06-12T04:26:42.281Z,95830
2023-06-12T04:27:42.282Z,95832
2023-06-12T04:29:42.258Z,95835
2023-06-12T04:30:42.312Z,95833
2023-06-12T04:31:42.394Z,95835
2023-06-12T04:32:42.329Z,95835
2023-06-12T04:33:42.302Z,95832
2023-06-12T04:34:42.362Z,95830
2023-06-12T04:35:42.395Z,95830
2023-06-12T04:36:42.321Z,95831
2023-06-12T04:37:42.313Z,95831
2023-06-12T04:38:42.367Z,95831
2023-06-12T04:39:42.349Z,95831
2023-06-12T04:40:42.332Z,95834
2023-06-12T04:41:42.331Z,95833
2023-06-12T04:42:42.319Z,95833
2023-06-12T04:43:42.330Z,95835
2023-06-12T04:44:42.341Z,95838
2023-06-12T04:45:42.330Z,95838
2023-06-12T04:46:42.403Z,95836
2023-06-12T04:47:42.352Z,95835
2023-06-12T04:48:42.426Z,95837
2023-06-12T04:49:42.353Z,95837
2023-06-12T04:51:42.376Z,95833
2023-06-12T04:52:42.377Z,95836
2023-06-12T04:53:42.351Z,95839
2023-06-12T04:54:42.409Z,95834
2023-06-12T04:55:42.363Z,95834
2023-06-12T04:56:42.378Z,95838
2023-06-12T04:57:42.373Z,95837
2023-06-12T04:58:42.334Z,95837
2023-06-12T04:59:42.382Z,95835
2023-06-12T05:00:42.398Z,95837
2023-06-12T05:01:42.382Z,95839
2023-06-12T05:02:42.467Z,95838
2023-06-12T05:03:42.392Z,95838
2023-06-12T05:04:42.443Z,95839
2023-06-12T05:06:42.413Z,95835
2023-06-12T05:07:42.416Z,95835
2023-06-12T05:08:42.372Z,95832
2023-06-12T05:09:42.423Z,95834
2023-06-12T05:10:42.426Z,95834
2023-06-12T05:11:42.384Z,95834
2023-06-12T05:12:42.465Z,95834
2023-06-12T05:14:42.410Z,95834
2023-06-12T05:15:42.412Z,95834
2023-06-12T05:16:42.449Z,95837
2023-06-12T05:17:42.461Z,95837
2023-06-12T05:18:42.457Z,95835
2023-06-12T05:19:42.439Z,95832
2023-06-12T05:20:42.430Z,95834
2023-06-12T05:21:42.392Z,95834
2023-06-12T05:22:42.434Z,95833
2023-06-12T05:23:42.443Z,95834
2023-06-12T05:24:42.483Z,95834
2023-06-12T05:25:42.450Z,95831
2023-06-12T05:26:42.491Z,95832
2023-06-12T05:27:42.452Z,95832
2023-06-12T05:28:42.466Z,95836
2023-06-12T05:29:42.432Z,95835
2023-06-12T05:30:42.490Z,95834
2023-06-12T05:31:42.475Z,95834
2023-06-12T05:32:42.529Z,95833
2023-06-12T05:33:44.093Z,95833
2023-06-12T05:34:42.459Z,95834
2023-06-12T05:35:42.518Z,95838
2023-06-12T05:36:42.510Z,95838
2023-06-12T05:37:42.441Z,95838
2023-06-12T05:38:42.480Z,95843
2023-06-12T05:39:42.515Z,95841
2023-06-12T05:40:42.487Z,95842
2023-06-12T05:41:42.509Z,95841
2023-06-12T05:42:42.459Z,95841
2023-06-12T05:43:42.536Z,95840
2023-06-12T05:44:42.527Z,95841
2023-06-12T05:45:42.489Z,95844
2023-06-12T05:46:42.589Z,95844
2023-06-12T05:47:42.498Z,95841
2023-06-12T05:48:42.495Z,95844
2023-06-12T05:49:44.033Z,95844
2023-06-12T05:50:42.518Z,95843
2023-06-12T05:51:43.786Z,95846
2023-06-12T05:52:42.539Z,95846
2023-06-12T05:53:42.538Z,95848
2023-06-12T05:55:42.560Z,95846
2023-06-12T05:56:42.542Z,95846
2023-06-12T05:57:42.528Z,95847
2023-06-12T05:58:42.534Z,95844
2023-06-12T05:59:42.564Z,95847
2023-06-12T06:00:42.507Z,95847
2023-06-12T06:01:42.544Z,95844
2023-06-12T06:02:42.589Z,95845
2023-06-12T06:03:42.702Z,95845
2023-06-12T06:04:43.254Z,95845
2023-06-12T06:05:42.550Z,95847
2023-06-12T06:06:42.544Z,95847
2023-06-12T06:07:42.557Z,95848
2023-06-12T06:08:42.516Z,95848
2023-06-12T06:09:42.587Z,95847
2023-06-12T06:10:42.571Z,95847
2023-06-12T06:11:42.574Z,95848
2023-06-12T06:12:42.625Z,95848
2023-06-12T06:13:42.555Z,95847
2023-06-12T06:14:42.589Z,95844
2023-06-12T06:15:42.598Z,95850
2023-06-12T06:16:54.083Z,95850
2023-06-12T06:17:42.683Z,95850
2023-06-12T06:19:42.617Z,95851
2023-06-12T06:20:42.638Z,95849
2023-06-12T06:21:42.547Z,95850
2023-06-12T06:22:42.586Z,95850
2023-06-12T06:23:42.676Z,95851
2023-06-12T06:24:42.594Z,95851
2023-06-12T06:25:42.599Z,95851
2023-06-12T06:26:42.602Z,95853
2023-06-12T06:27:42.614Z,95851
2023-06-12T06:28:42.621Z,95850
2023-06-12T06:29:42.582Z,95850
2023-06-12T06:30:42.604Z,95852
2023-06-12T06:31:42.866Z,95853
2023-06-12T06:32:42.651Z,95849
2023-06-12T06:33:42.665Z,95852
2023-06-12T06:34:42.581Z,95852
2023-06-12T06:35:42.647Z,95850
2023-06-12T06:36:42.659Z,95850
2023-06-12T06:37:42.593Z,95850
2023-06-12T06:38:42.625Z,95847
2023-06-12T06:39:42.644Z,95848
2023-06-12T06:40:42.647Z,95848
2023-06-12T06:42:42.624Z,95849
2023-06-12T06:43:42.641Z,95850
2023-06-12T06:44:42.659Z,95854
2023-06-12T06:45:42.708Z,95854
2023-06-12T06:46:42.722Z,95858
2023-06-12T06:47:42.656Z,95858
2023-06-12T06:48:42.681Z,95858
2023-06-12T06:49:42.653Z,95859
2023-06-12T06:50:42.628Z,95860
2023-06-12T06:51:42.680Z,95861
2023-06-12T06:52:42.680Z,95858
2023-06-12T06:53:42.678Z,95860
2023-06-12T06:54:42.668Z,95860
2023-06-12T06:55:42.656Z,95863
2023-06-12T06:56:42.703Z,95864
2023-06-12T06:57:42.676Z,95864
2023-06-12T06:58:42.675Z,95863
2023-06-12T06:59:42.721Z,95863
2023-06-12T07:00:42.655Z,95861
2023-06-12T07:01:42.777Z,95866
2023-06-12T07:02:42.819Z,95860
2023-06-12T07:03:42.780Z,95860
2023-06-12T07:04:42.727Z,95859
2023-06-12T07:05:42.726Z,95855
2023-06-12T07:06:42.711Z,95858
2023-06-12T07:07:59.877Z,95858
2023-06-12T07:08:42.752Z,95858
2023-06-12T07:09:42.709Z,95861
2023-06-12T07:10:42.738Z,95855
2023-06-12T07:11:42.716Z,95855
2023-06-12T07:12:42.754Z,95851
2023-06-12T07:13:42.733Z,95851
2023-06-12T07:14:42.747Z,95853
2023-06-12T07:15:42.778Z,95853
2023-06-12T07:16:42.862Z,95853
2023-06-12T07:17:42.875Z,95854
2023-06-12T07:18:42.758Z,95854
2023-06-12T07:19:42.764Z,95858
2023-06-12T07:20:42.738Z,95854
2023-06-12T07:21:42.712Z,95854
2023-06-12T07:22:42.754Z,95857
2023-06-12T07:23:45.253Z,95861
2023-06-12T07:24:42.752Z,95861
2023-06-12T07:26:42.757Z,95860
2023-06-12T07:27:42.766Z,95853
2023-06-12T07:28:42.789Z,95854
2023-06-12T07:29:42.754Z,95854
2023-06-12T07:30:42.801Z,95851
2023-06-12T07:31:43.022Z,95853
2023-06-12T07:32:42.848Z,95853
2023-06-12T07:33:42.766Z,95851
2023-06-12T07:34:42.773Z,95851
2023-06-12T07:35:42.807Z,95854
2023-06-12T07:36:42.820Z,95857
2023-06-12T07:37:42.790Z,95856
2023-06-12T07:38:42.916Z,95849
2023-06-12T07:39:42.815Z,95849
2023-06-12T07:40:42.820Z,95851
2023-06-12T07:41:42.817Z,95858
2023-06-12T07:42:42.789Z,95858
2023-06-12T07:43:42.828Z,95862
2023-06-12T07:44:42.804Z,95860
2023-06-12T07:45:42.805Z,95860
2023-06-12T07:46:42.846Z,95853
2023-06-12T07:47:42.807Z,95853
2023-06-12T07:48:42.851Z,95854
2023-06-12T07:49:42.823Z,95858
2023-06-12T07:50:42.791Z,95858
2023-06-12T07:51:42.839Z,95852
2023-06-12T07:52:42.815Z,95851
2023-06-12T07:53:42.794Z,95851
2023-06-12T07:54:42.833Z,95849
2023-06-12T07:55:42.803Z,95849
2023-06-12T07:56:42.870Z,95848
2023-06-12T07:57:42.840Z,95848
2023-06-12T07:58:42.841Z,95842
2023-06-12T07:59:42.848Z,95842
2023-06-12T08:00:42.821Z,95842
2023-06-12T08:01:42.861Z,95840
2023-06-12T08:02:43.061Z,95841
2023-06-12T08:03:42.898Z,95841
2023-06-12T08:04:42.897Z,95838
2023-06-12T08:05:42.813Z,95838
2023-06-12T08:06:42.939Z,95841
2023-06-12T08:07:42.864Z,95840
2023-06-12T08:08:42.881Z,95840
2023-06-12T08:09:42.892Z,95842
2023-06-12T08:10:42.867Z,95842
2023-06-12T08:11:42.906Z,95840
2023-06-12T08:12:42.908Z,95840
2023-06-12T08:13:42.875Z,95838
2023-06-12T08:14:42.903Z,95837
2023-06-12T08:15:42.905Z,95837
2023-06-12T08:16:43.034Z,95835
2023-06-12T08:17:42.982Z,95835
2023-06-12T08:18:42.872Z,95837
2023-06-12T08:19:42.890Z,95832
2023-06-12T08:20:42.938Z,95834
2023-06-12T08:21:42.906Z,95834
2023-06-12T08:22:42.893Z,95837
2023-06-12T08:23:42.961Z,95837
2023-06-12T08:24:42.934Z,95836
2023-06-12T08:25:42.916Z,95836
2023-06-12T08:26:42.897Z,95836
2023-06-12T08:27:42.956Z,95833
2023-06-12T08:28:42.954Z,95834
2023-06-12T08:29:42.953Z,95831
2023-06-12T08:30:42.948Z,95831
2023-06-12T08:31:42.893Z,95828
2023-06-12T08:32:44.433Z,95830
2023-06-12T08:33:42.939Z,95830
2023-06-12T08:34:42.911Z,95833
2023-06-12T08:35:42.954Z,95831
2023-06-12T08:36:42.970Z,95827
2023-06-12T08:37:42.983Z,95832
2023-06-12T08:38:42.945Z,95826
2023-06-12T08:39:42.932Z,95821
2023-06-12T08:40:43.012Z,95821
2023-06-12T08:41:42.936Z,95828
2023-06-12T08:42:42.973Z,95828
2023-06-12T08:43:42.954Z,95826
2023-06-12T08:44:42.943Z,95826
2023-06-12T08:45:43.009Z,95827
2023-06-12T08:46:43.018Z,95826
2023-06-12T08:47:42.960Z,95821
2023-06-12T08:48:43.002Z,95825
2023-06-12T08:49:43.003Z,95825
2023-06-12T08:50:44.212Z,95824
2023-06-12T08:51:43.115Z,95825
2023-06-12T08:52:42.953Z,95825
2023-06-12T08:53:43.010Z,95826
2023-06-12T08:54:43.002Z,95829
2023-06-12T08:56:43.023Z,95825
2023-06-12T08:57:43.014Z,95825
2023-06-12T08:58:43.035Z,95825
2023-06-12T08:59:43.038Z,95818
2023-06-12T09:00:43.015Z,95818
2023-06-12T09:01:43.072Z,95823
2023-06-12T09:02:43.110Z,95829
2023-06-12T09:03:43.128Z,95830
2023-06-12T09:04:43.182Z,95830
2023-06-12T09:05:43.061Z,95826
2023-06-12T09:06:43.016Z,95830
2023-06-12T09:07:43.072Z,95831
2023-06-12T09:08:43.004Z,95830
2023-06-12T09:09:43.090Z,95830
2023-06-12T09:10:43.038Z,95830
2023-06-12T09:11:43.041Z,95832
2023-06-12T09:12:43.038Z,95826
2023-06-12T09:13:43.036Z,95826
2023-06-12T09:14:43.055Z,95825
2023-06-12T09:15:43.079Z,95824
2023-06-12T09:16:43.091Z,95824
2023-06-12T09:17:43.094Z,95825
2023-06-12T09:18:43.117Z,95825
2023-06-12T09:19:43.055Z,95825
2023-06-12T09:21:43.074Z,95827
2023-06-12T09:22:43.065Z,95828
2023-06-12T09:23:43.094Z,95828
2023-06-12T09:24:43.109Z,95823
2023-06-12T09:25:49.898Z,95823
2023-06-12T09:26:43.041Z,95823
2023-06-12T09:27:43.075Z,95824
2023-06-12T09:28:43.114Z,95824
2023-06-12T09:30:43.095Z,95816
2023-06-12T09:31:43.106Z,95820
2023-06-12T09:32:43.174Z,95821
2023-06-12T09:33:43.089Z,95821
2023-06-12T09:34:43.117Z,95818
2023-06-12T09:35:43.128Z,95818
2023-06-12T09:37:43.107Z,95821
2023-06-12T09:38:43.129Z,95816
2023-06-12T09:39:43.103Z,95816
2023-06-12T09:40:43.179Z,95817
2023-06-12T09:41:43.126Z,95817
2023-06-12T09:42:43.125Z,95814
2023-06-12T09:43:43.157Z,95814
2023-06-12T09:44:43.092Z,95815
2023-06-12T09:45:43.151Z,95812
2023-06-12T09:46:43.148Z,95816
2023-06-12T09:47:43.238Z,95816
2023-06-12T09:49:43.101Z,95814
2023-06-12T09:50:43.156Z,95817
2023-06-12T09:51:43.144Z,95817
2023-06-12T09:52:43.155Z,95809
2023-06-12T09:53:43.152Z,95812
2023-06-12T09:54:43.119Z,95816
2023-06-12T09:55:43.157Z,95812
2023-06-12T09:56:43.156Z,95812
2023-06-12T09:57:43.127Z,95814
2023-06-12T09:58:43.161Z,95808
2023-06-12T09:59:43.167Z,95807
2023-06-12T10:00:43.177Z,95807
2023-06-12T10:01:43.260Z,95807
2023-06-12T10:02:43.134Z,95807
2023-06-12T10:04:43.166Z,95809
2023-06-12T10:05:43.160Z,95803
2023-06-12T10:06:43.190Z,95806
2023-06-12T10:07:43.204Z,95797
2023-06-12T10:08:43.211Z,95800
2023-06-12T10:09:43.186Z,95802
2023-06-12T10:10:43.170Z,95802
2023-06-12T10:11:43.213Z,95801
2023-06-12T10:12:43.189Z,95800
2023-06-12T10:13:43.211Z,95800
2023-06-12T10:14:43.217Z,95798
2023-06-12T10:15:43.185Z,95798
2023-06-12T10:16:43.249Z,95789
2023-06-12T10:17:43.240Z,95790
2023-06-12T10:18:43.192Z,95790
2023-06-12T10:19:43.246Z,95789
2023-06-12T10:20:43.226Z,95792
2023-06-12T10:21:43.234Z,95792
2023-06-12T10:23:43.292Z,95785
2023-06-12T10:24:43.240Z,95795
2023-06-12T10:25:43.238Z,95788
2023-06-12T10:26:43.243Z,95791
2023-06-12T10:27:43.242Z,95795
2023-06-12T10:28:43.207Z,95795
2023-06-12T10:29:43.278Z,95787
2023-06-12T10:30:43.247Z,95787
2023-06-12T10:31:43.247Z,95787
2023-06-12T10:32:43.317Z,95790
2023-06-12T10:33:43.225Z,95786
2023-06-12T10:34:43.257Z,95786
2023-06-12T10:35:43.267Z,95789
2023-06-12T10:36:43.303Z,95785
2023-06-12T10:37:43.275Z,95790
2023-06-12T10:38:43.267Z,95785
2023-06-12T10:39:43.294Z,95785
2023-06-12T10:40:49.371Z,95791
2023-06-12T10:41:43.302Z,95791
2023-06-12T10:42:43.292Z,95778
2023-06-12T10:43:58.769Z,95780
2023-06-12T10:44:43.281Z,95780
2023-06-12T10:45:43.389Z,95782
2023-06-12T10:47:43.331Z,95775
2023-06-12T10:48:43.332Z,95781
2023-06-12T10:49:43.303Z,95781
2023-06-12T10:50:43.339Z,95778
2023-06-12T10:52:43.315Z,95766
2023-06-12T10:53:43.339Z,95767
2023-06-12T10:54:43.321Z,95767
2023-06-12T10:55:43.344Z,95770
2023-06-12T10:56:43.401Z,95770
2023-06-12T10:57:43.342Z,95773
2023-06-12T10:58:43.358Z,95773
2023-06-12T10:59:43.431Z,95769
2023-06-12T11:00:43.362Z,95762
2023-06-12T11:01:43.366Z,95761
2023-06-12T11:02:43.416Z,95761
2023-06-12T11:03:43.683Z,95765
2023-06-12T11:04:43.386Z,95763
2023-06-12T11:05:43.360Z,95761
2023-06-12T11:06:43.344Z,95754
2023-06-12T11:07:43.328Z,95754
2023-06-12T11:08:43.373Z,95754
2023-06-12T11:09:43.411Z,95754
2023-06-12T11:10:43.356Z,95754
2023-06-12T11:11:43.357Z,95750
2023-06-12T11:13:43.360Z,95748
2023-06-12T11:14:43.380Z,95749
2023-06-12T11:15:43.333Z,95745
2023-06-12T11:16:43.406Z,95742
2023-06-12T11:17:43.378Z,95737
2023-06-12T11:18:43.380Z,95738
2023-06-12T11:19:43.392Z,95743
2023-06-12T11:20:43.391Z,95743
2023-06-12T11:21:43.392Z,95746
2023-06-12T11:22:43.426Z,95744
2023-06-12T11:23:43.536Z,95744
2023-06-12T11:24:43.472Z,95744
2023-06-12T11:25:43.587Z,95735
2023-06-12T11:26:43.426Z,95735
2023-06-12T11:27:43.488Z,95737
2023-06-12T11:29:56.502Z,95737
2023-06-12T11:31:02.343Z,95731
2023-06-12T11:31:43.385Z,95732
2023-06-12T11:32:43.443Z,95736
2023-06-12T11:33:43.414Z,95736
2023-06-12T11:34:43.418Z,95738
2023-06-12T11:36:43.404Z,95740
2023-06-12T11:40:43.452Z,95736
2023-06-12T11:41:43.406Z,95731
2023-06-12T11:42:43.464Z,95729
2023-06-12T11:43:43.474Z,95731
2023-06-12T11:44:43.465Z,95731
2023-06-12T11:45:43.464Z,95728
2023-06-12T11:46:43.485Z,95724
2023-06-12T11:49:43.507Z,95724
2023-06-12T11:50:43.451Z,95724
2023-06-12T11:51:43.464Z,95723
2023-06-12T11:52:44.556Z,95720
2023-06-12T11:53:43.493Z,95717
2023-06-12T11:58:43.474Z,95720
2023-06-12T11:59:43.449Z,95720
2023-06-12T12:00:43.491Z,95724
2023-06-12T12:01:43.551Z,95724
2023-06-12T12:02:43.484Z,95716
2023-06-12T12:03:43.530Z,95712
2023-06-12T12:04:43.580Z,95712
2023-06-12T12:05:43.507Z,95706
2023-06-12T12:06:43.498Z,95706
2023-06-12T12:07:43.485Z,95716
2023-06-12T12:08:43.515Z,95710
2023-06-12T12:09:43.545Z,95708
2023-06-12T12:11:43.538Z,95712
2023-06-12T12:12:43.519Z,95712
2023-06-12T12:13:43.525Z,95713
2023-06-12T12:14:43.546Z,95712
2023-06-12T12:15:43.535Z,95712
2023-06-12T12:16:43.526Z,95711
2023-06-12T12:17:43.601Z,95710
2023-06-12T12:18:43.537Z,95710
2023-06-12T12:19:43.561Z,95710
2023-06-12T12:20:43.531Z,95708
2023-06-12T12:21:43.508Z,95710
2023-06-12T12:22:43.629Z,95704
2023-06-12T12:23:43.636Z,95706
2023-06-12T12:24:43.592Z,95705
2023-06-12T12:25:43.528Z,95705
2023-06-12T12:26:43.569Z,95701
2023-06-12T12:27:43.577Z,95704
2023-06-12T12:28:43.546Z,95704
2023-06-12T12:29:58.774Z,95701
2023-06-12T12:30:43.569Z,95698
2023-06-12T12:31:46.125Z,95700
2023-06-12T12:32:43.608Z,95700
2023-06-12T12:33:43.572Z,95695
2023-06-12T12:34:43.648Z,95694
2023-06-12T12:35:43.596Z,95697
2023-06-12T12:36:43.605Z,95697
2023-06-12T12:37:43.585Z,95693
2023-06-12T12:38:43.581Z,95687
2023-06-12T12:39:43.607Z,95687
2023-06-12T12:40:43.589Z,95686
2023-06-12T12:41:43.589Z,95686
2023-06-12T12:42:43.641Z,95683
2023-06-12T12:43:43.615Z,95687
2023-06-12T12:44:43.648Z,95688
2023-06-12T12:45:43.644Z,95684
2023-06-12T12:46:43.604Z,95684
2023-06-12T12:47:43.709Z,95682
2023-06-12T12:48:43.868Z,95684
2023-06-12T12:49:49.118Z,95681
2023-06-12T12:50:56.881Z,95678
2023-06-12T12:51:43.581Z,95678
2023-06-12T12:52:43.660Z,95675
2023-06-12T12:53:44.518Z,95674
2023-06-12T12:54:43.625Z,95674
2023-06-12T12:55:43.641Z,95670
2023-06-12T12:56:43.638Z,95670
2023-06-12T12:57:43.688Z,95673
2023-06-12T12:58:43.701Z,95677
2023-06-12T12:59:43.602Z,95677
2023-06-12T13:00:43.721Z,95673
2023-06-12T13:01:43.642Z,95672
2023-06-12T13:02:43.837Z,95672
2023-06-12T13:03:43.756Z,95671
2023-06-12T13:04:43.615Z,95671
2023-06-12T13:05:43.687Z,95668
2023-06-12T13:06:43.663Z,95667
2023-06-12T13:07:43.659Z,95667
2023-06-12T13:08:43.665Z,95668
2023-06-12T13:09:43.690Z,95668
2023-06-12T13:10:43.694Z,95665
2023-06-12T13:11:43.692Z,95665
2023-06-12T13:12:43.663Z,95662
2023-06-12T13:13:43.706Z,95663
2023-06-12T13:14:43.716Z,95655
2023-06-12T13:15:43.713Z,95662
2023-06-12T13:16:43.747Z,95658
2023-06-12T13:17:43.696Z,95658
2023-06-12T13:18:45.635Z,95653
2023-06-12T13:19:43.689Z,95654
2023-06-12T13:20:43.673Z,95654
2023-06-12T13:21:43.717Z,95660
2023-06-12T13:22:43.698Z,95660
2023-06-12T13:23:43.740Z,95657
2023-06-12T13:24:43.709Z,95655
2023-06-12T13:25:43.659Z,95655
2023-06-12T13:26:43.723Z,95652
2023-06-12T13:27:43.716Z,95650
2023-06-12T13:28:43.710Z,95650
2023-06-12T13:29:43.755Z,95646
2023-06-12T13:31:43.761Z,95642
2023-06-12T13:32:43.834Z,95637
2023-06-12T13:33:43.704Z,95637
2023-06-12T13:36:43.738Z,95641
2023-06-12T13:37:43.748Z,95641
2023-06-12T13:38:43.721Z,95640
2023-06-12T13:39:43.813Z,95637
2023-06-12T13:40:43.764Z,95642
2023-06-12T13:42:43.789Z,95634
2023-06-12T13:43:43.768Z,95637
2023-06-12T13:44:43.819Z,95637
2023-06-12T13:45:43.840Z,95636
2023-06-12T13:46:43.788Z,95637
2023-06-12T13:47:43.835Z,95637
2023-06-12T13:48:43.797Z,95639
2023-06-12T13:49:43.803Z,95639
2023-06-12T13:50:43.791Z,95633
2023-06-12T13:51:43.765Z,95633
2023-06-12T13:52:43.788Z,95635
2023-06-12T13:53:43.816Z,95631
2023-06-12T13:54:43.761Z,95631
2023-06-12T13:55:43.796Z,95626
2023-06-12T13:57:43.812Z,95627
2023-06-12T13:58:43.829Z,95620
2023-06-12T13:59:43.799Z,95620
2023-06-12T14:00:43.832Z,95620
2023-06-12T14:01:43.882Z,95625
2023-06-12T14:02:43.900Z,95627
2023-06-12T14:03:43.832Z,95629
2023-06-12T14:04:43.945Z,95627
2023-06-12T14:05:43.830Z,95624
2023-06-12T14:07:43.883Z,95629
2023-06-12T14:08:43.861Z,95622
2023-06-12T14:09:43.865Z,95622
2023-06-12T14:10:43.877Z,95627
2023-06-12T14:11:43.860Z,95618
2023-06-12T14:12:43.832Z,95618
2023-06-12T14:13:43.872Z,95616